createdAt,value
2023-09-04T00:02:46.203Z,18.33
2023-09-04T00:05:52.733Z,17.98
2023-09-04T00:08:59.619Z,18.25
2023-09-04T00:12:08.182Z,17.89
2023-09-04T00:15:14.645Z,17.96
2023-09-04T00:18:21.397Z,17.96
2023-09-04T00:21:28.672Z,17.95
2023-09-04T00:24:34.997Z,17.81
2023-09-04T00:27:42.961Z,17.80
2023-09-04T00:30:49.686Z,17.84
2023-09-04T00:33:56.649Z,17.86
2023-09-04T00:37:04.118Z,18.18
2023-09-04T00:40:11.489Z,17.65
2023-09-04T00:43:19.121Z,17.62
2023-09-04T00:46:25.954Z,17.65
2023-09-04T00:49:32.905Z,17.72
2023-09-04T00:52:39.906Z,17.63
2023-09-04T00:55:46.969Z,17.49
2023-09-04T00:58:54.830Z,17.09
2023-09-04T01:02:02.703Z,16.51
2023-09-04T01:05:09.803Z,16.30
2023-09-04T01:08:17.813Z,16.47
2023-09-04T01:11:32.524Z,16.77
2023-09-04T01:14:46.076Z,17.20
2023-09-04T01:17:55.728Z,17.12
2023-09-04T01:21:04.386Z,17.01
2023-09-04T01:24:10.963Z,16.93
2023-09-04T01:27:27.319Z,16.75
2023-09-04T01:30:40.802Z,16.92
2023-09-04T01:33:52.428Z,17.08
2023-09-04T01:37:00.819Z,16.73
2023-09-04T01:40:08.883Z,17.07
2023-09-04T01:43:15.045Z,17.13
2023-09-04T01:46:21.821Z,16.57
2023-09-04T01:49:28.231Z,16.05
2023-09-04T01:52:36.211Z,16.38
2023-09-04T01:55:42.958Z,16.27
2023-09-04T01:58:49.183Z,16.37
2023-09-04T02:01:55.882Z,15.81
2023-09-04T02:05:02.306Z,16.35
2023-09-04T02:08:10.015Z,15.66
2023-09-04T02:11:16.514Z,16.32
2023-09-04T02:14:23.561Z,16.25
2023-09-04T02:17:29.944Z,15.75
2023-09-04T02:20:36.232Z,15.60
2023-09-04T02:23:44.173Z,15.48
2023-09-04T02:26:50.417Z,15.46
2023-09-04T02:29:57.026Z,15.90
2023-09-04T02:33:03.532Z,16.10
2023-09-04T02:36:10.344Z,16.26
2023-09-04T02:39:18.318Z,15.85
2023-09-04T02:42:24.666Z,16.00
2023-09-04T02:45:31.052Z,16.04
2023-09-04T02:48:37.277Z,16.21
2023-09-04T02:51:43.684Z,16.02
2023-09-04T02:54:51.489Z,16.18
2023-09-04T02:57:59.847Z,16.02
2023-09-04T03:01:07.725Z,16.00
2023-09-04T03:04:14.014Z,16.06
2023-09-04T03:07:20.324Z,16.31
2023-09-04T03:10:28.268Z,16.07
2023-09-04T03:13:34.666Z,15.97
2023-09-04T03:16:41.194Z,16.04
2023-09-04T03:19:47.659Z,15.87
2023-09-04T03:22:54.485Z,15.67
2023-09-04T03:26:02.307Z,15.70
2023-09-04T03:29:09.011Z,15.90
2023-09-04T03:32:15.472Z,15.78
2023-09-04T03:35:21.903Z,15.97
2023-09-04T03:38:28.169Z,16.02
2023-09-04T03:41:35.916Z,15.73
2023-09-04T03:44:42.218Z,15.89
2023-09-04T03:47:49.534Z,15.63
2023-09-04T03:50:55.840Z,15.34
2023-09-04T03:54:03.789Z,15.52
2023-09-04T03:57:11.692Z,15.63
2023-09-04T04:00:18.802Z,15.60
2023-09-04T04:03:25.133Z,15.52
2023-09-04T04:06:31.231Z,15.29
2023-09-04T04:09:37.802Z,15.52
2023-09-04T04:12:45.501Z,15.62
2023-09-04T04:15:51.707Z,15.36
2023-09-04T04:18:58.173Z,15.51
2023-09-04T04:22:04.330Z,15.61
2023-09-04T04:25:11.540Z,15.67
2023-09-04T04:28:21.064Z,15.72
2023-09-04T04:31:27.376Z,15.63
2023-09-04T04:34:33.579Z,15.65
2023-09-04T04:37:39.779Z,15.66
2023-09-04T04:40:45.935Z,15.63
2023-09-04T04:43:53.625Z,15.54
2023-09-04T04:46:59.824Z,15.68
2023-09-04T04:50:07.303Z,15.72
2023-09-04T04:53:13.780Z,15.68
2023-09-04T04:56:20.132Z,15.98
2023-09-04T04:59:27.877Z,16.08
2023-09-04T05:02:34.772Z,16.09
2023-09-04T05:05:46.281Z,16.02
2023-09-04T05:08:52.828Z,16.10
2023-09-04T05:11:59.024Z,16.10
2023-09-04T05:15:09.637Z,15.90
2023-09-04T05:18:15.911Z,15.91
2023-09-04T05:21:22.952Z,16.27
2023-09-04T05:24:29.986Z,15.90
2023-09-04T05:27:36.160Z,15.85
2023-09-04T05:30:43.955Z,16.17
2023-09-04T05:33:50.486Z,16.07
2023-09-04T05:36:57.530Z,16.40
2023-09-04T05:40:04.500Z,16.61
2023-09-04T05:43:10.951Z,16.71
2023-09-04T05:46:18.919Z,16.38
2023-09-04T05:49:25.477Z,16.33
2023-09-04T05:52:31.892Z,16.51
2023-09-04T05:55:38.772Z,16.72
2023-09-04T05:58:46.438Z,16.67
2023-09-04T06:01:53.886Z,16.75
2023-09-04T06:05:00.351Z,16.88
2023-09-04T06:08:07.189Z,16.91
2023-09-04T06:11:13.562Z,16.48
2023-09-04T06:14:19.924Z,17.07
2023-09-04T06:17:27.700Z,16.93
2023-09-04T06:20:34.094Z,16.73
2023-09-04T06:23:41.654Z,16.68
2023-09-04T06:26:47.918Z,16.80
2023-09-04T06:29:54.389Z,17.09
2023-09-04T06:33:02.116Z,16.75
2023-09-04T06:36:08.567Z,17.05
2023-09-04T06:39:14.926Z,16.84
2023-09-04T06:42:21.177Z,17.38
2023-09-04T06:45:27.718Z,17.29
2023-09-04T06:48:35.304Z,17.24
2023-09-04T06:51:41.334Z,17.46
2023-09-04T06:54:47.641Z,17.28
2023-09-04T06:57:54.318Z,17.42
2023-09-04T07:01:03.332Z,17.28
2023-09-04T07:04:11.443Z,17.41
2023-09-04T07:07:18.174Z,17.57
2023-09-04T07:10:24.775Z,17.41
2023-09-04T07:13:30.993Z,17.69
2023-09-04T07:16:44.293Z,17.69
2023-09-04T07:19:58.546Z,17.70
2023-09-04T07:23:20.057Z,17.76
2023-09-04T07:26:27.203Z,16.93
2023-09-04T07:29:33.731Z,17.45
2023-09-04T07:32:39.982Z,17.55
2023-09-04T07:35:56.409Z,17.66
2023-09-04T07:39:02.969Z,17.81
2023-09-04T07:42:09.836Z,17.25
2023-09-04T07:45:16.762Z,17.87
2023-09-04T07:48:23.850Z,18.23
2023-09-04T07:51:35.255Z,18.10
2023-09-04T07:54:42.734Z,16.83
2023-09-04T07:57:48.974Z,17.43
2023-09-04T08:00:55.556Z,18.47
2023-09-04T08:04:03.303Z,18.17
2023-09-04T08:07:10.776Z,18.53
2023-09-04T08:10:17.214Z,19.15
2023-09-04T08:13:24.155Z,19.07
2023-09-04T08:16:30.472Z,18.08
2023-09-04T08:19:37.020Z,17.86
2023-09-04T08:22:44.680Z,17.69
2023-09-04T08:26:00.405Z,18.72
2023-09-04T08:29:07.430Z,18.59
2023-09-04T08:32:14.173Z,19.17
2023-09-04T08:35:20.809Z,19.44
2023-09-04T08:38:29.043Z,18.52
2023-09-04T08:41:37.041Z,18.94
2023-09-04T08:44:45.848Z,19.20
2023-09-04T08:48:03.632Z,19.19
2023-09-04T08:51:10.160Z,18.55
2023-09-04T08:54:17.154Z,18.61
2023-09-04T08:57:24.008Z,18.17
2023-09-04T09:00:31.114Z,18.58
2023-09-04T09:03:39.291Z,18.73
2023-09-04T09:06:46.076Z,18.02
2023-09-04T09:09:53.757Z,17.95
2023-09-04T09:13:00.065Z,18.15
2023-09-04T09:16:07.233Z,18.63
2023-09-04T09:19:15.938Z,18.45
2023-09-04T09:22:23.629Z,18.38
2023-09-04T09:25:30.617Z,17.77
2023-09-04T09:28:37.792Z,17.95
2023-09-04T09:31:47.357Z,18.31
2023-09-04T09:34:56.920Z,18.28
2023-09-04T09:38:03.665Z,17.91
2023-09-04T09:41:10.036Z,18.30
2023-09-04T09:44:16.477Z,18.14
2023-09-04T09:47:23.875Z,18.03
2023-09-04T09:50:31.689Z,17.71
2023-09-04T09:53:49.840Z,17.88
2023-09-04T09:56:56.591Z,17.85
2023-09-04T10:00:03.922Z,17.84
2023-09-04T10:03:10.942Z,17.87
2023-09-04T10:06:24.616Z,18.28
2023-09-04T10:09:33.319Z,17.90
2023-09-04T10:12:45.374Z,17.83
2023-09-04T10:15:55.482Z,18.04
2023-09-04T10:19:05.089Z,18.40
2023-09-04T10:22:32.712Z,17.73
2023-09-04T10:25:47.083Z,18.55
2023-09-04T10:29:04.551Z,18.17
2023-09-04T10:32:12.721Z,17.93
2023-09-04T10:35:19.459Z,17.64
2023-09-04T10:38:28.640Z,17.31
2023-09-04T10:41:36.460Z,17.57
2023-09-04T10:44:47.363Z,17.52
2023-09-04T10:47:54.227Z,17.41
2023-09-04T10:51:00.357Z,17.40
2023-09-04T10:54:28.480Z,17.39
2023-09-04T10:57:55.822Z,17.31
2023-09-04T11:01:40.310Z,17.73
2023-09-04T11:04:47.623Z,17.24
2023-09-04T11:07:53.692Z,16.81
2023-09-04T11:11:05.183Z,17.42
2023-09-04T11:14:13.262Z,17.47
2023-09-04T11:17:19.729Z,17.34
2023-09-04T11:20:29.246Z,17.30
2023-09-04T11:23:36.348Z,17.40
2023-09-04T11:26:44.212Z,17.63
2023-09-04T11:29:50.477Z,17.73
2023-09-04T11:32:56.581Z,16.94
2023-09-04T11:36:03.453Z,17.00
2023-09-04T11:39:11.783Z,16.89
2023-09-04T11:42:23.724Z,16.27
2023-09-04T11:45:30.294Z,16.23
2023-09-04T11:48:37.229Z,16.53
2023-09-04T11:51:45.760Z,16.75
2023-09-04T11:54:54.507Z,16.38
2023-09-04T11:58:04.904Z,16.30
2023-09-04T12:01:11.138Z,16.34
2023-09-04T12:04:17.647Z,16.11
2023-09-04T12:07:23.887Z,16.25
2023-09-04T12:10:30.490Z,16.24
2023-09-04T12:13:38.196Z,16.29
2023-09-04T12:16:45.963Z,16.19
2023-09-04T12:19:52.579Z,16.16
2023-09-04T12:22:59.922Z,15.96
2023-09-04T12:26:06.236Z,16.10
2023-09-04T12:29:14.145Z,15.95
2023-09-04T12:32:23.053Z,15.60
2023-09-04T12:35:32.593Z,15.45
2023-09-04T12:38:40.615Z,15.46
2023-09-04T12:41:54.220Z,15.92
2023-09-04T12:45:02.354Z,16.03
2023-09-04T12:48:16.286Z,15.90
2023-09-04T12:51:22.836Z,16.41
2023-09-04T12:54:29.490Z,16.34
2023-09-04T12:57:36.119Z,16.46
2023-09-04T13:00:44.977Z,16.52
2023-09-04T13:03:51.251Z,16.28
2023-09-04T13:06:59.579Z,16.39
2023-09-04T13:10:07.973Z,16.03
2023-09-04T13:13:14.716Z,15.95
2023-09-04T13:16:24.701Z,15.73
2023-09-04T13:19:31.207Z,15.68
2023-09-04T13:22:37.603Z,16.00
2023-09-04T13:25:44.216Z,15.91
2023-09-04T13:28:50.696Z,15.82
2023-09-04T13:31:58.616Z,15.61
2023-09-04T13:35:05.748Z,15.20
2023-09-04T13:38:11.891Z,15.25
2023-09-04T13:41:18.056Z,15.92
2023-09-04T13:44:25.684Z,15.67
2023-09-04T13:47:33.504Z,14.96
2023-09-04T13:50:40.536Z,15.50
2023-09-04T13:53:47.240Z,15.23
2023-09-04T13:56:53.818Z,14.61
2023-09-04T14:00:00.255Z,14.49
2023-09-04T14:03:08.452Z,14.68
2023-09-04T14:06:14.949Z,15.16
2023-09-04T14:09:21.420Z,15.31
2023-09-04T14:12:27.910Z,15.47
2023-09-04T14:15:34.629Z,15.58
2023-09-04T14:18:42.352Z,15.31
2023-09-04T14:21:48.483Z,14.89
2023-09-04T14:24:55.300Z,14.95
2023-09-04T14:28:01.966Z,15.25
2023-09-04T14:31:14.834Z,15.17
2023-09-04T14:34:22.646Z,14.73
2023-09-04T14:37:29.017Z,15.43
2023-09-04T14:40:38.487Z,15.08
2023-09-04T14:43:44.713Z,15.29
2023-09-04T14:46:51.176Z,14.97
2023-09-04T14:49:59.053Z,14.91
2023-09-04T14:53:06.125Z,14.95
2023-09-04T14:56:12.505Z,15.06
2023-09-04T14:59:19.040Z,14.94
2023-09-04T15:02:25.622Z,14.75
2023-09-04T15:05:33.373Z,15.41
2023-09-04T15:08:40.239Z,15.73
2023-09-04T15:11:47.049Z,15.47
2023-09-04T15:14:53.291Z,15.21
2023-09-04T15:18:00.792Z,15.32
2023-09-04T15:21:08.937Z,15.11
2023-09-04T15:24:16.448Z,14.91
2023-09-04T15:27:23.013Z,15.21
2023-09-04T15:30:29.645Z,15.67
2023-09-04T15:33:35.987Z,15.76
2023-09-04T15:36:43.788Z,15.91
2023-09-04T15:39:50.098Z,15.78
2023-09-04T15:42:56.766Z,15.61
2023-09-04T15:46:03.844Z,15.31
2023-09-04T15:49:10.219Z,15.59
2023-09-04T15:52:18.014Z,15.69
2023-09-04T15:55:24.140Z,15.66
2023-09-04T15:58:30.707Z,15.78
2023-09-04T16:01:37.034Z,15.79
2023-09-04T16:04:43.473Z,15.62
2023-09-04T16:07:51.616Z,15.48
2023-09-04T16:10:59.177Z,15.53
2023-09-04T16:14:05.807Z,15.42
2023-09-04T16:17:12.290Z,15.37
2023-09-04T16:20:18.576Z,15.56
2023-09-04T16:23:27.065Z,15.67
2023-09-04T16:26:34.198Z,15.44
2023-09-04T16:29:40.518Z,15.74
2023-09-04T16:32:47.168Z,15.57
2023-09-04T16:35:53.636Z,15.58
2023-09-04T16:39:01.849Z,15.71
2023-09-04T16:42:08.949Z,15.58
2023-09-04T16:45:15.961Z,15.59
2023-09-04T16:48:23.735Z,15.66
2023-09-04T16:51:34.511Z,14.98
2023-09-04T16:54:47.639Z,15.09
2023-09-04T16:57:53.988Z,15.61
2023-09-04T17:01:01.325Z,15.43
2023-09-04T17:04:09.339Z,15.85
2023-09-04T17:07:16.733Z,15.65
2023-09-04T17:10:24.514Z,15.55
2023-09-04T17:13:30.390Z,15.17
2023-09-04T17:16:37.139Z,15.24
2023-09-04T17:19:43.630Z,15.38
2023-09-04T17:22:50.003Z,15.73
2023-09-04T17:26:01.906Z,15.70
2023-09-04T17:29:08.363Z,15.52
2023-09-04T17:32:14.977Z,15.60
2023-09-04T17:35:21.610Z,15.87
2023-09-04T17:38:28.047Z,15.79
2023-09-04T17:41:36.021Z,15.57
2023-09-04T17:44:42.334Z,15.51
2023-09-04T17:47:49.044Z,15.17
2023-09-04T17:50:55.432Z,15.08
2023-09-04T17:54:02.007Z,15.08
2023-09-04T17:57:10.626Z,15.22
2023-09-04T18:00:18.821Z,15.55
2023-09-04T18:03:25.189Z,15.55
2023-09-04T18:06:32.230Z,15.14
2023-09-04T18:09:41.825Z,14.99
2023-09-04T18:12:49.730Z,15.37
2023-09-04T18:15:55.967Z,15.34
2023-09-04T18:19:02.701Z,15.49
2023-09-04T18:22:08.975Z,15.60
2023-09-04T18:25:16.340Z,15.00
2023-09-04T18:28:24.520Z,15.36
2023-09-04T18:31:31.264Z,15.59
2023-09-04T18:34:37.849Z,15.69
2023-09-04T18:37:44.465Z,15.35
2023-09-04T18:40:50.988Z,15.22
2023-09-04T18:43:58.970Z,15.54
2023-09-04T18:47:06.634Z,15.43
2023-09-04T18:50:13.136Z,15.53
2023-09-04T18:53:19.860Z,15.28
2023-09-04T18:56:26.068Z,15.63
2023-09-04T18:59:38.058Z,15.59
2023-09-04T19:02:44.430Z,15.70
2023-09-04T19:05:50.780Z,15.41
2023-09-04T19:08:57.248Z,15.77
2023-09-04T19:12:04.699Z,15.38
2023-09-04T19:15:12.696Z,15.15
2023-09-04T19:18:19.143Z,15.55
2023-09-04T19:21:26.254Z,15.53
2023-09-04T19:24:51.447Z,15.29
2023-09-04T19:27:57.858Z,15.52
2023-09-04T19:31:05.762Z,15.67
2023-09-04T19:34:12.345Z,15.76
2023-09-04T19:37:19.042Z,15.53
2023-09-04T19:40:25.708Z,15.49
2023-09-04T19:43:31.863Z,15.57
2023-09-04T19:46:39.768Z,15.61
2023-09-04T19:49:46.086Z,15.50
2023-09-04T19:52:52.465Z,15.34
2023-09-04T19:55:58.736Z,15.38
2023-09-04T19:59:05.291Z,15.28
2023-09-04T20:02:12.991Z,15.53
2023-09-04T20:05:19.550Z,15.55
2023-09-04T20:08:26.482Z,15.21
2023-09-04T20:11:34.295Z,15.11
2023-09-04T20:14:40.679Z,15.34
2023-09-04T20:17:48.796Z,15.55
2023-09-04T20:20:58.006Z,15.59
2023-09-04T20:24:04.237Z,15.76
2023-09-04T20:27:10.492Z,15.66
2023-09-04T20:30:17.300Z,15.58
2023-09-04T20:33:25.849Z,15.58
2023-09-04T20:36:32.076Z,15.58
2023-09-04T20:39:38.518Z,15.86
2023-09-04T20:42:45.274Z,15.60
2023-09-04T20:45:51.823Z,15.67
2023-09-04T20:48:59.913Z,15.65
2023-09-04T20:52:07.413Z,15.69
2023-09-04T20:55:13.821Z,15.92
2023-09-04T20:58:20.392Z,16.00
2023-09-04T21:01:26.746Z,15.42
2023-09-04T21:04:34.760Z,15.66
2023-09-04T21:07:39.862Z,15.85
2023-09-04T21:10:44.673Z,15.80
2023-09-04T21:14:08.529Z,15.64
2023-09-04T21:17:32.431Z,15.77
2023-09-04T21:20:57.516Z,15.98
2023-09-04T21:24:21.414Z,15.70
2023-09-04T21:27:45.248Z,15.63
2023-09-04T21:31:08.993Z,15.70
2023-09-04T21:34:33.214Z,15.91
2023-09-04T21:37:57.994Z,15.87
2023-09-04T21:41:22.042Z,16.01
2023-09-04T21:44:45.970Z,16.19
2023-09-04T21:48:10.046Z,16.04
2023-09-04T21:51:33.986Z,16.10
2023-09-04T21:54:58.978Z,15.65
2023-09-04T21:58:22.763Z,15.73
2023-09-04T22:01:46.788Z,15.78
2023-09-04T22:05:10.475Z,15.88
2023-09-04T22:08:34.437Z,16.13
2023-09-04T22:11:59.113Z,16.28
2023-09-04T22:15:23.136Z,15.76
2023-09-04T22:18:48.678Z,16.06
2023-09-04T22:22:12.346Z,15.84
2023-09-04T22:25:36.117Z,16.00
2023-09-04T22:29:00.916Z,16.02
2023-09-04T22:32:24.651Z,16.15
2023-09-04T22:35:48.546Z,16.00
2023-09-04T22:39:13.261Z,15.77
2023-09-04T22:42:37.088Z,16.03
2023-09-04T22:46:02.062Z,16.18
2023-09-04T22:49:25.808Z,15.92
2023-09-04T22:52:59.899Z,15.48
2023-09-04T22:56:28.222Z,15.52
2023-09-04T22:59:51.791Z,15.76
2023-09-04T23:03:16.761Z,15.93
2023-09-04T23:06:40.594Z,16.09
2023-09-04T23:10:04.477Z,15.80
2023-09-04T23:13:28.382Z,15.97
2023-09-04T23:16:52.680Z,16.05
2023-09-04T23:20:18.348Z,16.18
2023-09-04T23:23:25.698Z,16.16
2023-09-04T23:26:43.796Z,16.15
2023-09-04T23:29:52.632Z,15.84
2023-09-04T23:33:09.349Z,16.01
2023-09-04T23:36:26.047Z,16.15
2023-09-04T23:39:50.390Z,16.12
2023-09-04T23:43:14.348Z,16.18
2023-09-04T23:46:20.617Z,16.26
2023-09-04T23:49:29.100Z,16.23
2023-09-04T23:52:37.495Z,16.36
2023-09-04T23:55:44.524Z,16.13
2023-09-04T23:58:50.864Z,16.25
